createdAt,value
2019-04-16T00:00:33.078Z,6.90
2019-04-16T00:03:02.419Z,6.90
2019-04-16T00:05:42.367Z,6.90
2019-04-16T00:08:27.438Z,6.90
2019-04-16T00:10:54.627Z,6.90
2019-04-16T00:13:28.511Z,6.90
2019-04-16T00:16:00.083Z,6.90
2019-04-16T00:18:29.406Z,6.90
2019-04-16T00:21:09.121Z,6.90
2019-04-16T00:23:38.907Z,6.80
2019-04-16T00:26:09.040Z,6.80
2019-04-16T00:28:38.388Z,6.70
2019-04-16T00:31:07.707Z,6.70
2019-04-16T00:33:39.399Z,6.70
2019-04-16T00:36:08.015Z,6.70
2019-04-16T00:38:40.901Z,6.60
2019-04-16T00:41:08.259Z,6.50
2019-04-16T00:43:38.610Z,6.40
2019-04-16T00:46:11.622Z,6.40
2019-04-16T00:48:39.814Z,6.40
2019-04-16T00:51:10.215Z,6.40
2019-04-16T00:53:39.768Z,6.40
2019-04-16T00:56:09.595Z,6.40
2019-04-16T00:58:38.878Z,6.40
2019-04-16T01:01:08.139Z,6.40
2019-04-16T01:03:37.423Z,6.50
2019-04-16T01:06:08.132Z,6.50
2019-04-16T01:08:37.838Z,6.40
2019-04-16T01:11:07.100Z,6.30
2019-04-16T01:13:36.383Z,6.20
2019-04-16T01:16:05.651Z,6.20
2019-04-16T01:18:38.456Z,6.10
2019-04-16T01:21:06.995Z,6.00
2019-04-16T01:23:36.279Z,6.00
2019-04-16T01:26:05.742Z,5.90
2019-04-16T01:28:53.198Z,5.90
2019-04-16T01:31:31.058Z,5.70
2019-04-16T01:34:18.133Z,5.70
2019-04-16T01:37:06.009Z,5.80
2019-04-16T01:39:40.043Z,5.80
2019-04-16T01:42:10.906Z,5.80
2019-04-16T01:44:40.187Z,5.80
2019-04-16T01:47:09.446Z,5.80
2019-04-16T01:49:39.347Z,5.80
2019-04-16T01:52:09.876Z,5.70
2019-04-16T01:54:39.125Z,5.70
2019-04-16T01:57:08.502Z,5.70
2019-04-16T01:59:37.751Z,5.70
2019-04-16T02:02:07.036Z,5.60
2019-04-16T02:04:36.299Z,5.60
2019-04-16T02:07:06.651Z,5.50
2019-04-16T02:09:35.907Z,5.50
2019-04-16T02:12:05.191Z,5.40
2019-04-16T02:14:34.455Z,5.30
2019-04-16T02:17:03.870Z,5.20
2019-04-16T02:19:33.621Z,5.20
2019-04-16T02:22:02.967Z,5.20
2019-04-16T02:24:32.231Z,5.10
2019-04-16T02:27:01.515Z,5.10
2019-04-16T02:29:30.802Z,4.90
2019-04-16T02:32:00.104Z,4.90
2019-04-16T02:34:29.371Z,4.80
2019-04-16T02:37:02.206Z,4.80
2019-04-16T02:39:46.981Z,4.70
2019-04-16T02:42:00.855Z,4.60
2019-04-16T02:44:30.239Z,4.40
2019-04-16T02:47:05.458Z,4.50
2019-04-16T02:49:30.440Z,4.50
2019-04-16T02:52:04.399Z,4.50
2019-04-16T02:54:38.260Z,4.60
2019-04-16T02:57:18.376Z,4.70
2019-04-16T02:59:49.210Z,4.70
2019-04-16T03:02:32.466Z,4.70
2019-04-16T03:05:15.376Z,4.70
2019-04-16T03:07:44.662Z,4.80
2019-04-16T03:10:14.041Z,4.70
2019-04-16T03:12:43.412Z,4.80
2019-04-16T03:15:15.355Z,4.80
2019-04-16T03:17:47.611Z,4.80
2019-04-16T03:20:20.900Z,4.80
2019-04-16T03:22:48.947Z,4.70
2019-04-16T03:25:18.233Z,4.80
2019-04-16T03:27:47.491Z,4.80
2019-04-16T03:30:16.958Z,4.80
2019-04-16T03:32:49.860Z,4.80
2019-04-16T03:35:19.222Z,4.80
2019-04-16T03:37:48.498Z,4.90
2019-04-16T03:40:18.947Z,4.90
2019-04-16T03:42:48.657Z,4.90
2019-04-16T03:45:17.942Z,4.80
2019-04-16T03:47:50.936Z,4.80
2019-04-16T03:50:18.134Z,4.70
2019-04-16T03:52:47.396Z,4.60
2019-04-16T03:55:16.767Z,4.70
2019-04-16T03:57:46.026Z,4.60
2019-04-16T04:00:15.352Z,4.70
2019-04-16T04:02:44.577Z,4.70
2019-04-16T04:05:13.861Z,4.70
2019-04-16T04:07:44.262Z,4.70
2019-04-16T04:10:14.032Z,4.70
2019-04-16T04:12:45.672Z,4.60
2019-04-16T04:15:14.198Z,4.60
2019-04-16T04:17:43.463Z,4.60
2019-04-16T04:20:14.655Z,4.50
2019-04-16T04:22:43.631Z,4.40
2019-04-16T04:25:12.903Z,4.30
2019-04-16T04:27:43.609Z,4.30
2019-04-16T04:30:13.071Z,4.20
2019-04-16T04:32:42.359Z,4.20
2019-04-16T04:35:11.620Z,4.20
2019-04-16T04:37:40.926Z,4.20
2019-04-16T04:40:12.963Z,4.10
2019-04-16T04:42:41.161Z,4.10
2019-04-16T04:45:10.643Z,4.10
2019-04-16T04:47:40.002Z,4.00
2019-04-16T04:50:09.260Z,4.00
2019-04-16T04:52:38.547Z,4.00
2019-04-16T04:55:07.878Z,4.00
2019-04-16T04:57:37.171Z,4.00
2019-04-16T05:00:09.743Z,4.10
2019-04-16T05:02:39.204Z,4.10
2019-04-16T05:05:25.948Z,4.10
2019-04-16T05:07:59.600Z,4.10
2019-04-16T05:10:25.485Z,4.20
2019-04-16T05:12:54.762Z,4.20
2019-04-16T05:15:26.464Z,4.20
2019-04-16T05:17:54.958Z,4.20
2019-04-16T05:20:24.243Z,4.20
2019-04-16T05:22:54.537Z,4.30
2019-04-16T05:25:24.624Z,4.30
2019-04-16T05:27:53.951Z,4.40
2019-04-16T05:30:23.310Z,4.40
2019-04-16T05:32:52.619Z,4.50
2019-04-16T05:35:21.923Z,4.60
2019-04-16T05:37:52.220Z,4.80
2019-04-16T05:40:21.671Z,4.90
2019-04-16T05:42:52.653Z,5.00
2019-04-16T05:45:22.095Z,5.20
2019-04-16T05:47:51.360Z,5.40
2019-04-16T05:50:20.811Z,5.50
2019-04-16T05:52:50.099Z,5.70
2019-04-16T05:55:27.011Z,5.80
2019-04-16T05:57:58.862Z,5.90
2019-04-16T06:00:46.294Z,6.10
2019-04-16T06:03:20.622Z,6.30
2019-04-16T06:05:46.587Z,6.50
2019-04-16T06:08:15.894Z,6.60
2019-04-16T06:10:49.784Z,6.70
2019-04-16T06:13:24.434Z,6.80
2019-04-16T06:15:55.343Z,7.00
2019-04-16T06:18:37.998Z,7.10
2019-04-16T06:21:25.833Z,7.20
2019-04-16T06:24:12.948Z,7.20
2019-04-16T06:27:02.211Z,7.30
2019-04-16T06:29:33.123Z,7.30
2019-04-16T06:32:08.445Z,7.40
2019-04-16T06:34:45.295Z,7.50
2019-04-16T06:37:26.604Z,7.70
2019-04-16T06:40:06.498Z,7.80
2019-04-16T06:42:46.470Z,8.00
2019-04-16T06:45:17.425Z,8.20
2019-04-16T06:50:47.619Z,8.40
2019-04-16T06:53:19.564Z,8.50
2019-04-16T06:55:54.907Z,8.70
2019-04-16T06:58:28.507Z,8.80
2019-04-16T07:01:05.845Z,8.90
2019-04-16T07:03:51.501Z,9.10
2019-04-16T07:06:38.696Z,9.20
2019-04-16T07:09:15.555Z,9.30
2019-04-16T07:11:54.243Z,9.50
2019-04-16T07:14:17.602Z,9.80
2019-04-16T07:16:46.972Z,9.90
2019-04-16T07:19:17.390Z,10.10
2019-04-16T07:21:49.648Z,10.30
2019-04-16T07:24:22.268Z,10.50
2019-04-16T07:26:49.744Z,10.70
2019-04-16T07:29:31.574Z,10.90
2019-04-16T07:31:59.238Z,11.00
2019-04-16T07:34:36.209Z,11.20
2019-04-16T07:37:23.668Z,11.30
2019-04-16T07:40:08.314Z,11.50
2019-04-16T07:42:51.322Z,11.70
2019-04-16T07:45:12.795Z,12.00
2019-04-16T07:47:43.976Z,12.20
2019-04-16T07:50:32.433Z,12.30
2019-04-16T07:53:13.326Z,12.40
2019-04-16T07:55:47.735Z,12.50
2019-04-16T07:58:17.008Z,12.60
2019-04-16T08:00:46.639Z,12.80
2019-04-16T08:03:15.979Z,12.80
2019-04-16T08:05:45.281Z,12.80
2019-04-16T08:08:15.606Z,13.00
2019-04-16T08:10:44.891Z,13.20
2019-04-16T08:13:18.497Z,13.30
2019-04-16T08:15:48.610Z,13.40
2019-04-16T08:18:17.899Z,13.60
2019-04-16T08:21:00.644Z,13.60
2019-04-16T08:23:25.427Z,13.60
2019-04-16T08:26:02.740Z,13.80
2019-04-16T08:28:26.441Z,14.10
2019-04-16T08:30:55.779Z,14.50
2019-04-16T08:33:28.284Z,14.70
2019-04-16T08:35:56.153Z,14.80
2019-04-16T08:38:26.179Z,14.80
2019-04-16T08:40:55.631Z,15.00
2019-04-16T08:43:26.739Z,15.00
2019-04-16T08:45:56.154Z,14.80
2019-04-16T08:48:25.464Z,14.80
2019-04-16T08:50:57.897Z,15.10
2019-04-16T08:53:25.718Z,15.30
2019-04-16T08:55:55.067Z,15.40
2019-04-16T08:58:24.364Z,15.60
2019-04-16T09:00:53.874Z,15.90
2019-04-16T09:03:26.862Z,16.00
2019-04-16T09:05:55.247Z,16.00
2019-04-16T09:08:35.395Z,16.10
2019-04-16T09:11:04.914Z,16.20
2019-04-16T09:13:44.499Z,16.30
2019-04-16T09:16:12.991Z,16.50
2019-04-16T09:18:46.911Z,16.70
2019-04-16T09:21:16.183Z,16.90
2019-04-16T09:23:47.115Z,17.10
2019-04-16T09:26:30.221Z,17.40
2019-04-16T09:29:10.486Z,17.50
2019-04-16T09:31:41.487Z,17.70
2019-04-16T09:34:28.939Z,17.80
2019-04-16T09:37:14.923Z,18.00
2019-04-16T09:39:51.716Z,18.40
2019-04-16T09:42:21.357Z,18.80
2019-04-16T09:44:51.024Z,19.30
2019-04-16T09:47:20.684Z,19.90
2019-04-16T09:49:52.950Z,20.50
2019-04-16T09:52:26.183Z,21.10
2019-04-16T09:54:57.264Z,21.10
2019-04-16T09:57:37.529Z,21.60
2019-04-16T10:00:08.839Z,22.10
2019-04-16T10:02:39.815Z,22.50
2019-04-16T10:05:09.247Z,22.90
2019-04-16T10:07:40.279Z,23.40
2019-04-16T10:10:10.760Z,23.80
2019-04-16T10:12:40.104Z,24.00
2019-04-16T10:15:09.671Z,23.40
2019-04-16T10:17:38.943Z,23.10
2019-04-16T10:20:08.271Z,23.20
2019-04-16T10:22:37.547Z,22.80
2019-04-16T10:25:08.746Z,22.80
2019-04-16T10:27:42.551Z,23.00
2019-04-16T10:30:17.517Z,23.20
2019-04-16T10:32:46.824Z,23.40
2019-04-16T10:35:16.191Z,23.50
2019-04-16T10:37:46.646Z,23.20
2019-04-16T10:40:32.720Z,22.90
2019-04-16T10:43:20.306Z,22.70
2019-04-16T10:45:51.341Z,22.40
2019-04-16T10:48:22.267Z,22.50
2019-04-16T10:50:59.110Z,22.20
2019-04-16T10:53:30.054Z,22.20
2019-04-16T10:56:20.660Z,22.10
2019-04-16T10:59:04.101Z,22.10
2019-04-16T11:01:35.332Z,22.30
2019-04-16T11:04:19.201Z,22.20
2019-04-16T11:06:50.199Z,22.10
2019-04-16T11:09:19.674Z,22.20
2019-04-16T11:11:48.973Z,22.00
2019-04-16T11:14:18.356Z,22.00
2019-04-16T11:16:50.431Z,21.60
2019-04-16T11:19:20.099Z,21.70
2019-04-16T11:21:49.347Z,21.70
2019-04-16T11:24:20.407Z,21.90
2019-04-16T11:26:49.527Z,21.90
2019-04-16T11:29:18.887Z,21.70
2019-04-16T11:31:48.235Z,21.60
2019-04-16T11:34:17.516Z,21.60
2019-04-16T11:36:46.804Z,21.30
2019-04-16T11:39:16.167Z,21.10
2019-04-16T11:41:45.520Z,20.90
2019-04-16T11:44:16.808Z,20.80
2019-04-16T11:46:45.915Z,20.70
2019-04-16T11:49:15.324Z,20.80
2019-04-16T11:51:44.602Z,20.90
2019-04-16T11:54:14.027Z,20.90
2019-04-16T11:56:45.198Z,20.80
2019-04-16T11:59:14.511Z,20.70
2019-04-16T12:01:55.425Z,20.70
2019-04-16T12:04:26.328Z,20.70
2019-04-16T12:07:14.146Z,21.00
2019-04-16T12:10:01.722Z,21.40
2019-04-16T12:12:33.004Z,21.80
2019-04-16T12:15:06.744Z,21.80
2019-04-16T12:17:52.761Z,21.90
2019-04-16T12:20:24.752Z,22.10
2019-04-16T12:23:12.075Z,21.90
2019-04-16T12:25:58.402Z,21.90
2019-04-16T12:28:48.451Z,21.70
2019-04-16T12:31:37.612Z,22.00
2019-04-16T12:34:08.507Z,21.90
2019-04-16T12:36:39.510Z,21.70
2019-04-16T12:39:22.355Z,21.80
2019-04-16T12:47:49.037Z,22.20
2019-04-16T12:50:28.338Z,22.40
2019-04-16T12:53:02.331Z,22.40
2019-04-16T12:55:33.520Z,22.40
2019-04-16T12:58:10.526Z,22.40
2019-04-16T13:00:41.431Z,22.30
2019-04-16T13:03:16.403Z,22.30
2019-04-16T13:05:53.464Z,22.30
2019-04-16T13:08:26.151Z,22.20
2019-04-16T13:11:02.786Z,22.60
2019-04-16T13:13:51.069Z,23.40
2019-04-16T13:16:24.756Z,24.50
2019-04-16T13:19:08.046Z,25.00
2019-04-16T13:21:48.040Z,24.80
2019-04-16T13:24:19.038Z,24.80
2019-04-16T13:26:52.904Z,25.30
2019-04-16T13:29:22.263Z,25.60
2019-04-16T13:31:51.604Z,25.80
2019-04-16T13:34:21.967Z,25.90
2019-04-16T13:36:51.835Z,25.60
2019-04-16T13:39:23.175Z,24.90
2019-04-16T13:41:52.463Z,24.70
2019-04-16T13:44:23.374Z,25.10
2019-04-16T13:46:52.740Z,25.50
2019-04-16T13:49:31.671Z,25.90
2019-04-16T13:52:00.645Z,26.50
2019-04-16T13:54:53.953Z,26.90
2019-04-16T13:57:26.027Z,27.20
2019-04-16T14:00:06.071Z,27.20
2019-04-16T14:02:39.880Z,27.20
2019-04-16T14:05:10.966Z,26.70
2019-04-16T14:07:40.323Z,26.40
2019-04-16T14:10:09.859Z,25.90
2019-04-16T14:12:42.082Z,25.40
2019-04-16T14:15:10.611Z,25.20
2019-04-16T14:17:51.748Z,24.70
2019-04-16T14:20:12.826Z,24.70
2019-04-16T14:22:42.211Z,24.30
2019-04-16T14:25:11.543Z,24.20
2019-04-16T14:27:41.961Z,24.20
2019-04-16T14:30:14.302Z,24.30
2019-04-16T14:32:45.491Z,24.20
2019-04-16T14:35:32.454Z,24.20
2019-04-16T14:37:51.202Z,24.30
2019-04-16T14:40:22.299Z,24.30
2019-04-16T14:42:56.182Z,24.30
2019-04-16T14:45:24.377Z,24.10
2019-04-16T14:47:53.716Z,24.00
2019-04-16T14:50:24.316Z,23.90
2019-04-16T14:52:53.850Z,23.70
2019-04-16T14:55:24.775Z,23.60
2019-04-16T14:58:16.027Z,23.60
2019-04-16T15:00:47.448Z,23.60
2019-04-16T15:03:18.429Z,23.60
2019-04-16T15:05:50.454Z,23.70
2019-04-16T15:08:26.192Z,23.60
2019-04-16T15:11:15.846Z,23.70
2019-04-16T15:13:57.012Z,23.40
2019-04-16T15:16:32.153Z,23.20
2019-04-16T15:19:03.375Z,23.10
2019-04-16T15:21:37.053Z,23.00
2019-04-16T15:24:10.915Z,22.80
2019-04-16T15:26:44.920Z,22.60
2019-04-16T15:29:16.019Z,22.40
2019-04-16T15:31:56.297Z,22.10
2019-04-16T15:34:29.983Z,21.80
2019-04-16T15:37:06.782Z,21.30
2019-04-16T15:39:46.589Z,21.00
2019-04-16T15:42:29.879Z,20.50
2019-04-16T15:45:00.788Z,20.20
2019-04-16T15:47:35.335Z,20.00
2019-04-16T15:50:16.876Z,19.80
2019-04-16T15:52:47.822Z,19.70
2019-04-16T15:55:24.874Z,19.60
2019-04-16T15:57:55.748Z,19.40
2019-04-16T16:00:26.727Z,19.30
2019-04-16T16:03:13.982Z,19.20
2019-04-16T16:05:47.678Z,19.20
2019-04-16T16:08:18.611Z,19.40
2019-04-16T16:10:52.379Z,19.60
2019-04-16T16:13:26.320Z,19.70
2019-04-16T16:15:53.700Z,19.90
2019-04-16T16:18:23.050Z,20.20
2019-04-16T16:20:52.307Z,20.30
2019-04-16T16:23:21.599Z,20.50
2019-04-16T16:25:50.863Z,20.50
2019-04-16T16:28:20.159Z,20.40
2019-04-16T16:30:49.422Z,20.10
2019-04-16T16:33:18.815Z,19.90
2019-04-16T16:35:57.767Z,19.90
2019-04-16T16:38:20.992Z,19.70
2019-04-16T16:40:50.580Z,19.70
2019-04-16T16:43:19.917Z,19.60
2019-04-16T16:45:50.892Z,19.40
2019-04-16T16:48:21.884Z,19.40
2019-04-16T16:50:51.885Z,19.20
2019-04-16T16:53:39.316Z,19.20
2019-04-16T16:56:13.736Z,19.10
2019-04-16T16:58:44.709Z,19.00
2019-04-16T17:01:34.105Z,19.00
2019-04-16T17:04:06.120Z,18.80
2019-04-16T17:06:35.455Z,18.70
2019-04-16T17:09:05.778Z,18.70
2019-04-16T17:11:37.023Z,18.50
2019-04-16T17:14:06.379Z,18.40
2019-04-16T17:16:35.679Z,18.30
2019-04-16T17:19:06.016Z,18.30
2019-04-16T17:21:35.307Z,18.20
2019-04-16T17:24:04.610Z,18.20
2019-04-16T17:26:33.870Z,18.10
2019-04-16T17:29:03.243Z,18.00
2019-04-16T17:31:35.829Z,17.80
2019-04-16T17:34:03.472Z,17.70
2019-04-16T17:36:33.127Z,17.70
2019-04-16T17:39:02.467Z,17.60
2019-04-16T17:41:44.667Z,17.50
2019-04-16T17:44:27.255Z,17.50
2019-04-16T17:47:06.345Z,17.40
2019-04-16T17:49:43.231Z,17.40
2019-04-16T17:52:26.152Z,17.30
2019-04-16T17:55:06.256Z,17.20
2019-04-16T17:57:43.185Z,17.10
2019-04-16T18:00:20.050Z,17.00
2019-04-16T18:02:50.984Z,16.80
2019-04-16T18:05:28.106Z,16.70
2019-04-16T18:08:11.177Z,16.60
2019-04-16T18:10:42.086Z,16.50
2019-04-16T18:13:13.087Z,16.50
2019-04-16T18:15:47.104Z,16.40
2019-04-16T18:18:18.075Z,16.40
2019-04-16T18:20:57.289Z,16.40
2019-04-16T18:23:30.566Z,16.30
2019-04-16T18:26:01.547Z,16.30
2019-04-16T18:28:32.558Z,16.30
2019-04-16T18:31:04.537Z,16.20
2019-04-16T18:33:35.549Z,16.10
2019-04-16T18:36:09.418Z,16.00
2019-04-16T18:38:49.611Z,15.90
2019-04-16T18:41:20.526Z,15.80
2019-04-16T18:44:29.162Z,15.80
2019-04-16T18:47:10.792Z,15.80
2019-04-16T18:49:40.159Z,15.70
2019-04-16T18:52:09.591Z,15.60
2019-04-16T18:54:38.882Z,15.40
2019-04-16T18:57:09.411Z,15.30
2019-04-16T18:59:38.699Z,15.20
2019-04-16T19:02:09.780Z,15.10
2019-04-16T19:04:39.284Z,15.10
2019-04-16T19:07:08.582Z,15.20
2019-04-16T19:09:38.036Z,15.20
2019-04-16T19:12:07.322Z,15.20
2019-04-16T19:14:36.930Z,15.20
2019-04-16T19:17:06.348Z,15.10
2019-04-16T19:19:35.614Z,14.90
2019-04-16T19:22:05.229Z,14.80
2019-04-16T19:24:35.515Z,14.80
2019-04-16T19:27:04.920Z,14.70
2019-04-16T19:29:34.346Z,14.70
2019-04-16T19:32:03.640Z,14.70
2019-04-16T19:34:32.927Z,14.70
2019-04-16T19:37:02.215Z,14.70
2019-04-16T19:39:31.551Z,14.70
2019-04-16T19:42:00.838Z,14.50
2019-04-16T19:44:33.346Z,14.30
2019-04-16T19:47:01.255Z,14.40
2019-04-16T19:49:30.571Z,14.30
2019-04-16T19:51:59.863Z,14.30
2019-04-16T19:54:31.684Z,14.30
2019-04-16T19:57:01.462Z,14.30
2019-04-16T19:59:31.867Z,14.20
2019-04-16T20:02:01.977Z,14.30
2019-04-16T20:04:32.719Z,14.30
2019-04-16T20:07:02.368Z,14.30
2019-04-16T20:09:32.920Z,14.30
2019-04-16T20:12:02.280Z,14.40
2019-04-16T20:14:35.375Z,14.40
2019-04-16T20:17:02.631Z,14.40
2019-04-16T20:19:31.991Z,14.40
2019-04-16T20:22:01.255Z,14.30
2019-04-16T20:24:43.257Z,14.30
2019-04-16T20:27:12.519Z,14.20
2019-04-16T20:29:41.871Z,14.00
2019-04-16T20:32:11.203Z,13.80
2019-04-16T20:34:42.343Z,13.70
2019-04-16T20:37:11.375Z,13.70
2019-04-16T20:39:41.037Z,13.80
2019-04-16T20:42:10.303Z,13.80
2019-04-16T20:44:39.594Z,13.80
2019-04-16T20:47:09.060Z,13.80
2019-04-16T20:49:38.346Z,13.90
2019-04-16T20:52:07.676Z,13.80
2019-04-16T20:54:38.231Z,13.70
2019-04-16T20:57:07.487Z,13.80
2019-04-16T20:59:39.202Z,13.90
2019-04-16T21:02:07.743Z,14.00
2019-04-16T21:04:37.070Z,14.00
2019-04-16T21:07:06.344Z,14.00
2019-04-16T21:09:35.630Z,13.90
2019-04-16T21:12:05.055Z,13.80
2019-04-16T21:14:34.419Z,13.80
2019-04-16T21:17:06.897Z,13.70
2019-04-16T21:19:47.977Z,13.60
2019-04-16T21:22:17.883Z,13.40
2019-04-16T21:24:47.172Z,13.30
2019-04-16T21:27:16.463Z,13.20
2019-04-16T21:29:46.202Z,13.10
2019-04-16T21:32:23.163Z,13.00
2019-04-16T21:34:58.654Z,12.80
2019-04-16T21:37:38.532Z,12.60
2019-04-16T21:40:08.665Z,12.50
2019-04-16T21:42:37.952Z,12.40
2019-04-16T21:45:07.357Z,12.40
2019-04-16T21:47:36.715Z,12.40
2019-04-16T21:50:06.853Z,12.40
2019-04-16T21:52:36.142Z,12.40
2019-04-16T21:55:06.658Z,12.40
2019-04-16T21:57:35.955Z,12.50
2019-04-16T22:00:09.882Z,12.50
2019-04-16T22:02:41.666Z,12.60
2019-04-16T22:05:11.002Z,12.60
2019-04-16T22:07:40.367Z,12.60
2019-04-16T22:10:09.694Z,12.60
2019-04-16T22:12:39.254Z,12.50
2019-04-16T22:15:08.527Z,12.50
2019-04-16T22:17:37.882Z,12.40
2019-04-16T22:20:07.247Z,12.40
2019-04-16T22:22:37.514Z,12.40
2019-04-16T22:25:06.870Z,12.30
2019-04-16T22:27:36.863Z,12.40
2019-04-16T22:30:07.071Z,12.30
2019-04-16T22:32:36.475Z,12.20
2019-04-16T22:35:07.440Z,12.10
2019-04-16T22:37:36.696Z,12.10
2019-04-16T22:40:13.847Z,12.00
2019-04-16T22:43:06.885Z,12.00
2019-04-16T22:45:36.818Z,11.90
2019-04-16T22:48:06.228Z,11.90
2019-04-16T22:50:38.119Z,11.90
2019-04-16T22:53:06.629Z,11.80
2019-04-16T22:55:36.466Z,11.80
2019-04-16T22:58:05.801Z,11.70
2019-04-16T23:00:36.799Z,11.60
2019-04-16T23:03:06.243Z,11.50
2019-04-16T23:05:35.546Z,11.50
2019-04-16T23:08:04.822Z,11.40
2019-04-16T23:10:34.107Z,11.30
2019-04-16T23:13:03.378Z,11.20
2019-04-16T23:15:33.312Z,11.10
2019-04-16T23:18:02.551Z,11.00
2019-04-16T23:20:35.913Z,10.90
2019-04-16T23:23:02.739Z,10.90
2019-04-16T23:25:32.031Z,10.80
2019-04-16T23:28:01.460Z,10.80
2019-04-16T23:30:30.872Z,10.70
2019-04-16T23:33:01.393Z,10.70
2019-04-16T23:35:31.131Z,10.70
2019-04-16T23:38:01.052Z,10.70
2019-04-16T23:40:31.631Z,10.70
2019-04-16T23:43:22.216Z,10.60
2019-04-16T23:46:11.528Z,10.60
2019-04-16T23:48:44.748Z,10.50
2019-04-16T23:51:15.006Z,10.50
2019-04-16T23:53:51.827Z,10.40
2019-04-16T23:56:25.721Z,10.40
2019-04-16T23:59:01.466Z,10.40
